createdAt,value
2019-02-18T00:00:13.315Z,2.69
2019-02-18T00:01:13.260Z,2.71
2019-02-18T00:02:13.182Z,2.53
2019-02-18T00:03:13.113Z,2.43
2019-02-18T00:04:13.045Z,2.39
2019-02-18T00:05:12.978Z,2.32
2019-02-18T00:06:12.908Z,2.28
2019-02-18T00:07:14.702Z,2.18
2019-02-18T00:08:12.771Z,2.21
2019-02-18T00:09:12.722Z,2.18
2019-02-18T00:10:12.636Z,2.12
2019-02-18T00:11:12.577Z,2.12
2019-02-18T00:12:12.501Z,2.21
2019-02-18T00:13:12.431Z,2.21
2019-02-18T00:14:12.371Z,2.18
2019-02-18T00:15:12.293Z,2.17
2019-02-18T00:16:12.228Z,2.18
2019-02-18T00:17:12.167Z,2.11
2019-02-18T00:18:12.090Z,2.11
2019-02-18T00:19:12.032Z,2.04
2019-02-18T00:20:11.960Z,2.15
2019-02-18T00:21:11.938Z,2.10
2019-02-18T00:22:11.826Z,2.17
2019-02-18T00:23:11.757Z,2.10
2019-02-18T00:24:11.684Z,2.04
2019-02-18T00:25:11.615Z,1.95
2019-02-18T00:26:11.545Z,1.95
2019-02-18T00:27:11.481Z,1.85
2019-02-18T00:28:11.417Z,1.82
2019-02-18T00:29:11.350Z,1.81
2019-02-18T00:30:11.298Z,1.91
2019-02-18T00:31:11.226Z,1.97
2019-02-18T00:32:11.140Z,1.92
2019-02-18T00:33:11.073Z,1.97
2019-02-18T00:34:11.004Z,1.99
2019-02-18T00:35:10.935Z,1.93
2019-02-18T00:36:10.867Z,1.97
2019-02-18T00:37:10.801Z,1.95
2019-02-18T00:38:10.748Z,2.10
2019-02-18T00:39:10.659Z,2.00
2019-02-18T00:40:10.590Z,2.07
2019-02-18T00:41:10.526Z,2.21
2019-02-18T00:42:10.455Z,2.14
2019-02-18T00:43:10.389Z,2.22
2019-02-18T00:44:10.330Z,2.24
2019-02-18T00:45:10.261Z,2.29
2019-02-18T00:46:10.199Z,2.32
2019-02-18T00:47:10.120Z,2.30
2019-02-18T00:48:10.049Z,2.35
2019-02-18T00:49:09.982Z,2.33
2019-02-18T00:50:09.929Z,2.30
2019-02-18T00:51:09.842Z,2.33
2019-02-18T00:52:09.837Z,2.33
2019-02-18T00:53:09.711Z,2.25
2019-02-18T00:54:09.653Z,2.28
2019-02-18T00:55:09.565Z,2.28
2019-02-18T00:56:09.502Z,2.28
2019-02-18T00:57:09.433Z,2.33
2019-02-18T00:58:09.367Z,2.33
2019-02-18T00:59:09.307Z,2.39
2019-02-18T01:00:09.249Z,2.35
2019-02-18T01:01:09.175Z,2.32
2019-02-18T01:02:09.093Z,2.33
2019-02-18T01:03:09.026Z,2.28
2019-02-18T01:04:08.956Z,2.21
2019-02-18T01:05:08.894Z,2.15
2019-02-18T01:06:08.819Z,2.25
2019-02-18T01:07:08.753Z,2.22
2019-02-18T01:08:08.683Z,2.25
2019-02-18T01:09:08.622Z,2.19
2019-02-18T01:10:08.544Z,2.18
2019-02-18T01:11:08.481Z,2.19
2019-02-18T01:12:08.409Z,2.12
2019-02-18T01:13:08.354Z,2.15
2019-02-18T01:14:08.281Z,2.12
2019-02-18T01:15:08.264Z,2.22
2019-02-18T01:16:08.142Z,2.10
2019-02-18T01:17:08.074Z,2.03
2019-02-18T01:18:08.004Z,2.10
2019-02-18T01:19:07.933Z,2.14
2019-02-18T01:20:07.865Z,2.10
2019-02-18T01:21:07.799Z,2.10
2019-02-18T01:22:07.731Z,1.95
2019-02-18T01:23:07.687Z,1.89
2019-02-18T01:24:07.600Z,1.95
2019-02-18T01:25:07.530Z,1.85
2019-02-18T01:26:07.455Z,1.85
2019-02-18T01:27:07.388Z,1.91
2019-02-18T01:28:07.321Z,1.92
2019-02-18T01:29:07.252Z,1.95
2019-02-18T01:30:07.182Z,1.93
2019-02-18T01:31:07.114Z,1.97
2019-02-18T01:32:07.047Z,1.97
2019-02-18T01:33:06.982Z,1.97
2019-02-18T01:34:06.904Z,1.95
2019-02-18T01:35:06.844Z,1.99
2019-02-18T01:36:06.775Z,1.92
2019-02-18T01:37:06.703Z,1.93
2019-02-18T01:38:06.637Z,1.92
2019-02-18T01:39:06.565Z,1.82
2019-02-18T01:40:06.498Z,1.80
2019-02-18T01:41:06.430Z,1.77
2019-02-18T01:42:06.364Z,1.78
2019-02-18T01:43:06.299Z,1.91
2019-02-18T01:44:06.221Z,1.92
2019-02-18T01:45:06.158Z,1.95
2019-02-18T01:46:06.093Z,1.87
2019-02-18T01:47:06.022Z,1.91
2019-02-18T01:48:05.960Z,1.80
2019-02-18T01:49:05.896Z,1.93
2019-02-18T01:50:05.828Z,2.00
2019-02-18T01:51:05.752Z,1.85
2019-02-18T01:52:05.681Z,1.87
2019-02-18T01:53:05.613Z,1.84
2019-02-18T01:54:05.543Z,1.87
2019-02-18T01:55:05.476Z,1.85
2019-02-18T01:56:05.406Z,1.81
2019-02-18T01:57:05.339Z,1.82
2019-02-18T01:58:05.277Z,1.82
2019-02-18T01:59:05.201Z,1.80
2019-02-18T02:00:05.135Z,1.77
2019-02-18T02:01:05.064Z,1.64
2019-02-18T02:02:04.994Z,1.56
2019-02-18T02:03:04.926Z,1.59
2019-02-18T02:04:04.858Z,1.60
2019-02-18T02:05:04.789Z,1.56
2019-02-18T02:06:04.724Z,1.57
2019-02-18T02:07:04.654Z,1.69
2019-02-18T02:08:04.598Z,1.56
2019-02-18T02:09:04.515Z,1.71
2019-02-18T02:10:04.448Z,1.63
2019-02-18T02:11:04.380Z,1.64
2019-02-18T02:12:04.309Z,1.60
2019-02-18T02:13:04.242Z,1.57
2019-02-18T02:14:04.173Z,1.67
2019-02-18T02:15:04.106Z,1.62
2019-02-18T02:16:04.038Z,1.66
2019-02-18T02:17:03.966Z,1.67
2019-02-18T02:18:03.898Z,1.66
2019-02-18T02:19:03.829Z,1.66
2019-02-18T02:20:03.765Z,1.67
2019-02-18T02:21:03.693Z,1.55
2019-02-18T02:22:03.624Z,1.49
2019-02-18T02:23:03.556Z,1.60
2019-02-18T02:24:03.487Z,1.46
2019-02-18T02:25:03.414Z,1.55
2019-02-18T02:26:03.353Z,1.53
2019-02-18T02:27:03.285Z,1.60
2019-02-18T02:28:03.217Z,1.57
2019-02-18T02:29:03.151Z,1.57
2019-02-18T02:30:03.078Z,1.60
2019-02-18T02:31:03.018Z,1.56
2019-02-18T02:32:02.949Z,1.48
2019-02-18T02:33:02.870Z,1.39
2019-02-18T02:34:02.804Z,1.45
2019-02-18T02:35:02.736Z,1.36
2019-02-18T02:36:02.681Z,1.35
2019-02-18T02:37:02.598Z,1.35
2019-02-18T02:38:07.527Z,1.35
2019-02-18T02:39:02.474Z,1.31
2019-02-18T02:40:02.403Z,1.36
2019-02-18T02:41:02.318Z,1.23
2019-02-18T02:42:02.320Z,1.13
2019-02-18T02:43:02.188Z,1.20
2019-02-18T02:44:02.118Z,1.13
2019-02-18T02:45:02.079Z,1.08
2019-02-18T02:46:01.978Z,1.09
2019-02-18T02:47:01.909Z,1.02
2019-02-18T02:48:01.845Z,1.05
2019-02-18T02:49:01.784Z,1.10
2019-02-18T02:50:01.700Z,1.10
2019-02-18T02:51:01.653Z,1.08
2019-02-18T02:52:01.570Z,1.10
2019-02-18T02:53:01.498Z,1.08
2019-02-18T02:54:01.429Z,1.09
2019-02-18T02:55:01.381Z,1.12
2019-02-18T02:56:01.291Z,1.12
2019-02-18T02:57:01.226Z,1.16
2019-02-18T02:58:01.157Z,1.13
2019-02-18T02:59:01.102Z,1.20
2019-02-18T03:00:01.014Z,1.21
2019-02-18T03:01:00.975Z,1.26
2019-02-18T03:02:00.891Z,1.17
2019-02-18T03:03:00.811Z,1.16
2019-02-18T03:04:00.746Z,1.24
2019-02-18T03:05:00.677Z,1.24
2019-02-18T03:06:00.603Z,1.26
2019-02-18T03:07:00.546Z,1.23
2019-02-18T03:08:00.480Z,1.20
2019-02-18T03:09:00.412Z,1.24
2019-02-18T03:10:00.394Z,1.17
2019-02-18T03:11:00.265Z,1.17
2019-02-18T03:12:00.194Z,1.27
2019-02-18T03:13:00.143Z,1.34
2019-02-18T03:14:00.079Z,1.30
2019-02-18T03:14:59.991Z,1.39
2019-02-18T03:15:59.919Z,1.31
2019-02-18T03:16:59.860Z,1.36
2019-02-18T03:17:59.783Z,1.45
2019-02-18T03:18:59.715Z,1.42
2019-02-18T03:19:59.639Z,1.44
2019-02-18T03:20:59.586Z,1.46
2019-02-18T03:21:59.506Z,1.45
2019-02-18T03:22:59.437Z,1.49
2019-02-18T03:23:59.367Z,1.52
2019-02-18T03:24:59.321Z,1.45
2019-02-18T03:25:59.230Z,1.41
2019-02-18T03:26:59.157Z,1.36
2019-02-18T03:27:59.104Z,1.39
2019-02-18T03:28:59.021Z,1.38
2019-02-18T03:29:58.965Z,1.30
2019-02-18T03:30:58.929Z,1.31
2019-02-18T03:31:58.834Z,1.30
2019-02-18T03:32:58.756Z,1.39
2019-02-18T03:33:58.682Z,1.36
2019-02-18T03:35:00.545Z,1.35
2019-02-18T03:35:58.546Z,1.35
2019-02-18T03:36:58.491Z,1.36
2019-02-18T03:37:58.403Z,1.28
2019-02-18T03:38:58.339Z,1.26
2019-02-18T03:39:58.268Z,1.26
2019-02-18T03:41:03.183Z,1.30
2019-02-18T03:41:58.128Z,1.30
2019-02-18T03:42:58.069Z,1.38
2019-02-18T03:43:58.002Z,1.34
2019-02-18T03:44:57.923Z,1.49
2019-02-18T03:45:57.871Z,1.49
2019-02-18T03:46:57.789Z,1.53
2019-02-18T03:47:57.713Z,1.42
2019-02-18T03:48:57.664Z,1.44
2019-02-18T03:49:57.575Z,1.45
2019-02-18T03:50:57.515Z,1.49
2019-02-18T03:51:57.438Z,1.49
2019-02-18T03:52:57.381Z,1.41
2019-02-18T03:53:57.312Z,1.44
2019-02-18T03:54:57.240Z,1.38
2019-02-18T03:55:57.165Z,1.30
2019-02-18T03:56:57.180Z,1.36
2019-02-18T03:57:57.027Z,1.28
2019-02-18T03:58:56.978Z,1.35
2019-02-18T03:59:56.902Z,1.35
2019-02-18T04:00:56.825Z,1.26
2019-02-18T04:01:56.754Z,1.28
2019-02-18T04:02:56.692Z,1.23
2019-02-18T04:03:56.622Z,1.23
2019-02-18T04:04:56.547Z,1.24
2019-02-18T04:05:56.478Z,1.13
2019-02-18T04:06:56.408Z,1.13
2019-02-18T04:07:56.342Z,1.05
2019-02-18T04:08:56.269Z,0.94
2019-02-18T04:09:56.214Z,0.91
2019-02-18T04:10:56.134Z,0.85
2019-02-18T04:11:56.066Z,0.92
2019-02-18T04:12:55.992Z,0.96
2019-02-18T04:13:55.930Z,0.90
2019-02-18T04:14:55.859Z,0.98
2019-02-18T04:15:55.797Z,0.98
2019-02-18T04:16:55.717Z,0.99
2019-02-18T04:17:55.663Z,0.99
2019-02-18T04:18:55.583Z,0.94
2019-02-18T04:19:55.519Z,1.03
2019-02-18T04:20:55.470Z,1.08
2019-02-18T04:21:55.402Z,1.03
2019-02-18T04:22:55.329Z,0.96
2019-02-18T04:23:55.239Z,0.91
2019-02-18T04:24:55.182Z,0.87
2019-02-18T04:25:55.113Z,0.90
2019-02-18T04:26:55.037Z,0.87
2019-02-18T04:27:54.963Z,0.91
2019-02-18T04:28:54.893Z,0.94
2019-02-18T04:29:54.826Z,1.03
2019-02-18T04:30:54.767Z,1.06
2019-02-18T04:31:54.686Z,0.98
2019-02-18T04:32:54.618Z,1.05
2019-02-18T04:33:54.551Z,0.96
2019-02-18T04:34:54.490Z,0.90
2019-02-18T04:35:54.408Z,0.87
2019-02-18T04:36:54.345Z,0.90
2019-02-18T04:37:54.272Z,0.94
2019-02-18T04:38:54.548Z,0.98
2019-02-18T04:39:54.133Z,0.87
2019-02-18T04:40:54.077Z,0.92
2019-02-18T04:41:53.999Z,0.88
2019-02-18T04:42:53.966Z,0.91
2019-02-18T04:43:53.856Z,0.85
2019-02-18T04:44:53.791Z,0.99
2019-02-18T04:45:53.746Z,0.90
2019-02-18T04:46:53.653Z,0.88
2019-02-18T04:47:53.594Z,0.88
2019-02-18T04:48:53.516Z,0.85
2019-02-18T04:49:53.468Z,0.81
2019-02-18T04:50:53.386Z,0.81
2019-02-18T04:51:53.316Z,0.87
2019-02-18T04:52:53.251Z,0.76
2019-02-18T04:53:53.194Z,0.69
2019-02-18T04:54:53.102Z,0.78
2019-02-18T04:55:53.032Z,0.78
2019-02-18T04:56:52.965Z,0.84
2019-02-18T04:57:52.908Z,0.84
2019-02-18T04:58:52.827Z,0.80
2019-02-18T04:59:52.756Z,0.69
2019-02-18T05:00:52.695Z,0.62
2019-02-18T05:01:52.623Z,0.74
2019-02-18T05:02:52.549Z,0.73
2019-02-18T05:03:52.487Z,0.70
2019-02-18T05:04:52.407Z,0.70
2019-02-18T05:05:52.357Z,0.72
2019-02-18T05:06:52.272Z,0.63
2019-02-18T05:07:52.211Z,0.70
2019-02-18T05:08:52.140Z,0.63
2019-02-18T05:09:52.072Z,0.60
2019-02-18T05:10:51.994Z,0.62
2019-02-18T05:11:51.930Z,0.62
2019-02-18T05:12:51.859Z,0.59
2019-02-18T05:13:51.790Z,0.45
2019-02-18T05:14:51.723Z,0.51
2019-02-18T05:15:51.651Z,0.51
2019-02-18T05:16:51.586Z,0.53
2019-02-18T05:17:51.525Z,0.63
2019-02-18T05:18:51.449Z,0.59
2019-02-18T05:19:51.386Z,0.60
2019-02-18T05:20:51.304Z,0.55
2019-02-18T05:21:51.238Z,0.48
2019-02-18T05:22:51.183Z,0.41
2019-02-18T05:23:51.125Z,0.43
2019-02-18T05:24:51.049Z,0.37
2019-02-18T05:25:50.959Z,0.41
2019-02-18T05:26:50.894Z,0.40
2019-02-18T05:27:50.824Z,0.41
2019-02-18T05:28:50.770Z,0.45
2019-02-18T05:29:50.683Z,0.48
2019-02-18T05:30:50.617Z,0.44
2019-02-18T05:31:50.548Z,0.48
2019-02-18T05:32:50.488Z,0.48
2019-02-18T05:33:50.405Z,0.43
2019-02-18T05:34:50.344Z,0.43
2019-02-18T05:35:50.278Z,0.40
2019-02-18T05:36:50.205Z,0.43
2019-02-18T05:37:50.144Z,0.45
2019-02-18T05:38:50.064Z,0.44
2019-02-18T05:39:49.993Z,0.44
2019-02-18T05:40:49.959Z,0.36
2019-02-18T05:41:49.859Z,0.35
2019-02-18T05:42:49.790Z,0.30
2019-02-18T05:43:49.720Z,0.35
2019-02-18T05:44:49.653Z,0.25
2019-02-18T05:45:49.582Z,0.26
2019-02-18T05:46:49.510Z,0.32
2019-02-18T05:47:49.439Z,0.18
2019-02-18T05:48:49.384Z,0.20
2019-02-18T05:49:49.319Z,0.23
2019-02-18T05:50:49.296Z,0.12
2019-02-18T05:51:49.163Z,0.08
2019-02-18T05:52:49.095Z,0.04
2019-02-18T05:53:49.024Z,0.07
2019-02-18T05:54:48.960Z,0.02
2019-02-18T05:55:48.886Z,0.04
2019-02-18T05:56:48.820Z,0.02
2019-02-18T05:57:48.760Z,0.00
2019-02-18T05:58:48.690Z,0.04
2019-02-18T05:59:48.633Z,0.04
2019-02-18T06:00:48.547Z,-0.04
2019-02-18T06:01:48.476Z,0.00
2019-02-18T06:02:48.409Z,-0.11
2019-02-18T06:03:48.368Z,-0.22
2019-02-18T06:04:48.262Z,-0.25
2019-02-18T06:05:48.191Z,-0.24
2019-02-18T06:06:48.136Z,-0.34
2019-02-18T06:07:48.070Z,-0.34
2019-02-18T06:08:48.003Z,-0.21
2019-02-18T06:09:47.934Z,-0.25
2019-02-18T06:10:47.848Z,-0.24
2019-02-18T06:11:47.786Z,-0.25
2019-02-18T06:12:47.708Z,-0.17
2019-02-18T06:13:47.643Z,-0.03
2019-02-18T06:14:47.580Z,0.07
2019-02-18T06:15:47.500Z,0.04
2019-02-18T06:16:47.433Z,0.08
2019-02-18T06:17:47.361Z,0.11
2019-02-18T06:18:47.295Z,0.11
2019-02-18T06:19:47.241Z,0.09
2019-02-18T06:20:47.156Z,0.00
2019-02-18T06:21:47.084Z,0.07
2019-02-18T06:22:47.021Z,0.02
2019-02-18T06:23:46.964Z,0.14
2019-02-18T06:24:46.874Z,0.14
2019-02-18T06:25:46.806Z,0.08
2019-02-18T06:26:46.742Z,0.14
2019-02-18T06:27:46.690Z,0.11
2019-02-18T06:28:46.594Z,0.15
2019-02-18T06:29:46.527Z,0.20
2019-02-18T06:30:46.460Z,0.22
2019-02-18T06:31:46.388Z,0.22
2019-02-18T06:32:46.350Z,0.22
2019-02-18T06:33:46.267Z,0.26
2019-02-18T06:34:46.185Z,0.25
2019-02-18T06:35:46.118Z,0.27
2019-02-18T06:36:46.044Z,0.29
2019-02-18T06:37:45.987Z,0.29
2019-02-18T06:38:45.906Z,0.32
2019-02-18T06:39:45.843Z,0.27
2019-02-18T06:40:45.801Z,0.26
2019-02-18T06:41:45.710Z,0.25
2019-02-18T06:42:45.629Z,0.26
2019-02-18T06:43:45.560Z,0.26
2019-02-18T06:44:45.481Z,0.27
2019-02-18T06:45:45.419Z,0.23
2019-02-18T06:46:45.349Z,0.22
2019-02-18T06:47:45.290Z,0.22
2019-02-18T06:48:45.215Z,0.23
2019-02-18T06:49:45.136Z,0.26
2019-02-18T06:50:45.070Z,0.32
2019-02-18T06:51:44.999Z,0.36
2019-02-18T06:52:44.936Z,0.40
2019-02-18T06:53:44.876Z,0.40
2019-02-18T06:54:44.825Z,0.36
2019-02-18T06:55:44.723Z,0.51
2019-02-18T06:56:44.674Z,0.59
2019-02-18T06:57:44.586Z,0.56
2019-02-18T06:58:44.517Z,0.63
2019-02-18T06:59:44.445Z,0.56
2019-02-18T07:00:44.379Z,0.64
2019-02-18T07:01:44.319Z,0.66
2019-02-18T07:02:44.246Z,0.67
2019-02-18T07:03:44.171Z,0.63
2019-02-18T07:04:44.102Z,0.64
2019-02-18T07:05:44.031Z,0.72
2019-02-18T07:06:43.972Z,0.76
2019-02-18T07:07:43.895Z,0.66
2019-02-18T07:08:43.823Z,0.84
2019-02-18T07:09:50.835Z,0.73
2019-02-18T07:10:43.689Z,0.80
2019-02-18T07:11:43.638Z,0.63
2019-02-18T07:12:43.546Z,0.66
2019-02-18T07:13:43.486Z,0.63
2019-02-18T07:14:43.420Z,0.78
2019-02-18T07:15:43.339Z,0.76
2019-02-18T07:16:43.283Z,0.84
2019-02-18T07:17:43.205Z,0.81
2019-02-18T07:18:43.135Z,0.90
2019-02-18T07:19:43.061Z,0.94
2019-02-18T07:20:42.993Z,1.08
2019-02-18T07:21:42.925Z,1.03
2019-02-18T07:22:42.858Z,1.08
2019-02-18T07:23:42.783Z,1.21
2019-02-18T07:24:42.714Z,1.23
2019-02-18T07:25:42.649Z,1.31
2019-02-18T07:26:42.582Z,1.38
2019-02-18T07:27:42.514Z,1.45
2019-02-18T07:28:42.441Z,1.44
2019-02-18T07:29:42.373Z,1.57
2019-02-18T07:30:42.309Z,1.69
2019-02-18T07:31:42.239Z,1.66
2019-02-18T07:32:42.167Z,1.81
2019-02-18T07:33:42.110Z,1.80
2019-02-18T07:34:42.028Z,1.81
2019-02-18T07:35:41.961Z,1.84
2019-02-18T07:36:41.907Z,1.78
2019-02-18T07:37:41.831Z,1.89
2019-02-18T07:38:41.753Z,1.97
2019-02-18T07:39:41.693Z,1.95
2019-02-18T07:40:41.633Z,1.95
2019-02-18T07:41:41.568Z,2.07
2019-02-18T07:42:41.478Z,2.11
2019-02-18T07:43:41.414Z,2.12
2019-02-18T07:44:41.341Z,2.07
2019-02-18T07:45:41.273Z,2.04
2019-02-18T07:46:41.201Z,2.11
2019-02-18T07:47:41.135Z,2.03
2019-02-18T07:48:41.065Z,2.04
2019-02-18T07:49:40.997Z,2.07
2019-02-18T07:50:40.929Z,2.12
2019-02-18T07:51:40.860Z,2.17
2019-02-18T07:52:40.792Z,2.22
2019-02-18T07:53:40.722Z,2.25
2019-02-18T07:54:40.672Z,2.28
2019-02-18T07:55:40.594Z,2.33
2019-02-18T07:56:40.528Z,2.37
2019-02-18T07:57:40.449Z,2.39
2019-02-18T07:58:40.382Z,2.47
2019-02-18T07:59:42.741Z,2.36
2019-02-18T08:00:40.255Z,2.48
2019-02-18T08:01:40.204Z,2.45
2019-02-18T08:02:40.112Z,2.51
2019-02-18T08:03:40.039Z,2.53
2019-02-18T08:04:39.968Z,2.63
2019-02-18T08:05:39.896Z,2.55
2019-02-18T08:06:39.835Z,2.68
2019-02-18T08:07:39.764Z,2.61
2019-02-18T08:08:39.702Z,2.63
2019-02-18T08:09:39.639Z,2.68
2019-02-18T08:10:39.561Z,2.69
2019-02-18T08:11:39.500Z,2.82
2019-02-18T08:12:39.424Z,2.86
2019-02-18T08:13:39.357Z,2.84
2019-02-18T08:14:39.298Z,2.93
2019-02-18T08:15:39.219Z,2.97
2019-02-18T08:16:39.152Z,3.02
2019-02-18T08:17:39.078Z,3.08
2019-02-18T08:18:39.016Z,3.08
2019-02-18T08:19:38.944Z,3.23
2019-02-18T08:20:38.881Z,3.22
2019-02-18T08:21:38.815Z,3.32
2019-02-18T08:22:38.742Z,3.46
2019-02-18T08:23:38.680Z,3.44
2019-02-18T08:24:38.608Z,3.37
2019-02-18T08:25:38.539Z,3.46
2019-02-18T08:26:38.470Z,3.49
2019-02-18T08:27:38.410Z,3.60
2019-02-18T08:28:38.336Z,3.59
2019-02-18T08:29:38.268Z,3.69
2019-02-18T08:30:38.207Z,3.72
2019-02-18T08:31:38.128Z,3.73
2019-02-18T08:32:38.066Z,3.81
2019-02-18T08:33:38.004Z,3.82
2019-02-18T08:34:37.927Z,3.92
2019-02-18T08:35:37.861Z,3.98
2019-02-18T08:36:37.799Z,4.08
2019-02-18T08:37:37.725Z,4.09
2019-02-18T08:38:37.655Z,4.10
2019-02-18T08:39:37.590Z,4.16
2019-02-18T08:40:37.529Z,4.24
2019-02-18T08:41:37.455Z,4.20
2019-02-18T08:42:37.386Z,4.18
2019-02-18T08:43:37.320Z,4.30
2019-02-18T08:44:37.254Z,4.31
2019-02-18T08:45:37.187Z,4.38
2019-02-18T08:46:37.123Z,4.53
2019-02-18T08:47:37.050Z,4.49
2019-02-18T08:48:36.986Z,4.48
2019-02-18T08:49:36.912Z,4.61
2019-02-18T08:50:36.848Z,4.59
2019-02-18T08:51:36.787Z,4.77
2019-02-18T08:52:36.725Z,4.67
2019-02-18T08:53:36.662Z,4.75
2019-02-18T08:54:36.583Z,4.74
2019-02-18T08:55:36.517Z,4.79
2019-02-18T08:56:36.452Z,4.86
2019-02-18T08:57:36.375Z,5.00
2019-02-18T08:58:36.311Z,5.00
2019-02-18T08:59:36.278Z,5.07
2019-02-18T09:00:36.176Z,5.09
2019-02-18T09:01:36.109Z,5.07
2019-02-18T09:02:36.041Z,5.18
2019-02-18T09:03:35.980Z,5.24
2019-02-18T09:04:35.903Z,5.32
2019-02-18T09:05:35.841Z,5.43
2019-02-18T09:06:35.775Z,5.37
2019-02-18T09:07:35.702Z,5.37
2019-02-18T09:08:35.656Z,5.47
2019-02-18T09:09:35.573Z,5.55
2019-02-18T09:10:35.516Z,5.55
2019-02-18T09:11:35.442Z,5.65
2019-02-18T09:12:35.372Z,5.72
2019-02-18T09:13:35.305Z,5.73
2019-02-18T09:14:35.239Z,5.79
2019-02-18T09:15:35.171Z,5.90
2019-02-18T09:16:35.105Z,5.91
2019-02-18T09:17:35.040Z,5.94
2019-02-18T09:18:34.975Z,5.97
2019-02-18T09:19:34.906Z,6.15
2019-02-18T09:20:34.845Z,6.18
2019-02-18T09:21:34.780Z,6.19
2019-02-18T09:22:34.707Z,6.15
2019-02-18T09:23:34.639Z,6.28
2019-02-18T09:24:34.573Z,6.30
2019-02-18T09:25:34.507Z,6.42
2019-02-18T09:26:34.451Z,6.43
2019-02-18T09:27:34.378Z,6.42
2019-02-18T09:28:34.311Z,6.46
2019-02-18T09:29:34.241Z,6.47
2019-02-18T09:30:34.178Z,6.50
2019-02-18T09:31:34.110Z,6.55
2019-02-18T09:32:34.043Z,6.67
2019-02-18T09:33:33.978Z,6.63
2019-02-18T09:34:33.908Z,6.71
2019-02-18T09:35:33.851Z,6.81
2019-02-18T09:36:33.777Z,6.86
2019-02-18T09:37:33.728Z,6.93
2019-02-18T09:38:33.647Z,6.93
2019-02-18T09:39:33.581Z,7.00
2019-02-18T09:40:43.982Z,7.16
2019-02-18T09:41:33.458Z,7.18
2019-02-18T09:42:33.383Z,7.24
2019-02-18T09:43:33.313Z,7.34
2019-02-18T09:44:33.253Z,7.40
2019-02-18T09:45:33.186Z,7.42
2019-02-18T09:46:33.119Z,7.54
2019-02-18T09:47:33.055Z,7.44
2019-02-18T09:48:32.989Z,7.49
2019-02-18T09:49:32.921Z,7.50
2019-02-18T09:50:32.865Z,7.62
2019-02-18T09:51:32.801Z,7.60
2019-02-18T09:52:32.724Z,7.62
2019-02-18T09:53:32.657Z,7.68
2019-02-18T09:54:32.597Z,7.73
2019-02-18T09:55:32.527Z,7.76
2019-02-18T09:56:32.464Z,7.88
2019-02-18T09:57:32.404Z,7.86
2019-02-18T09:58:32.336Z,7.96
2019-02-18T09:59:32.273Z,7.96
2019-02-18T10:00:32.199Z,7.81
2019-02-18T10:01:32.134Z,7.83
2019-02-18T10:02:32.069Z,7.84
2019-02-18T10:03:32.450Z,8.04
2019-02-18T10:04:31.938Z,7.99
2019-02-18T10:05:31.873Z,8.02
2019-02-18T10:06:31.809Z,8.12
2019-02-18T10:07:31.738Z,8.13
2019-02-18T10:08:31.675Z,8.14
2019-02-18T10:09:31.621Z,8.24
2019-02-18T10:10:31.554Z,8.28
2019-02-18T10:11:31.479Z,8.24
2019-02-18T10:12:31.454Z,8.34
2019-02-18T10:13:31.355Z,8.37
2019-02-18T10:14:31.290Z,8.37
2019-02-18T10:15:31.225Z,8.47
2019-02-18T10:16:31.158Z,8.52
2019-02-18T10:17:31.092Z,8.56
2019-02-18T10:18:31.025Z,8.57
2019-02-18T10:19:30.956Z,8.74
2019-02-18T10:20:30.895Z,8.72
2019-02-18T10:21:30.830Z,8.71
2019-02-18T10:22:30.768Z,8.74
2019-02-18T10:23:30.700Z,8.78
2019-02-18T10:24:30.632Z,8.74
2019-02-18T10:25:30.568Z,8.71
2019-02-18T10:26:30.526Z,8.80
2019-02-18T10:27:30.437Z,8.81
2019-02-18T10:28:30.388Z,8.86
2019-02-18T10:29:30.309Z,8.92
2019-02-18T10:30:30.244Z,8.92
2019-02-18T10:31:30.179Z,9.14
2019-02-18T10:32:30.117Z,9.15
2019-02-18T10:33:30.053Z,9.32
2019-02-18T10:34:29.981Z,9.32
2019-02-18T10:35:29.937Z,9.36
2019-02-18T10:36:29.859Z,9.34
2019-02-18T10:37:29.789Z,9.29
2019-02-18T10:38:29.738Z,9.32
2019-02-18T10:39:29.658Z,9.30
2019-02-18T10:40:29.597Z,9.18
2019-02-18T10:41:29.534Z,9.19
2019-02-18T10:42:29.470Z,9.16
2019-02-18T10:43:32.342Z,9.14
2019-02-18T10:44:29.333Z,9.18
2019-02-18T10:45:29.275Z,9.19
2019-02-18T10:46:29.216Z,9.16
2019-02-18T10:47:29.141Z,9.19
2019-02-18T10:48:29.077Z,9.15
2019-02-18T10:49:29.012Z,9.24
2019-02-18T10:50:28.949Z,9.18
2019-02-18T10:51:28.884Z,9.27
2019-02-18T10:52:28.817Z,9.26
2019-02-18T10:53:28.757Z,9.27
2019-02-18T10:54:28.693Z,9.34
2019-02-18T10:55:28.626Z,9.37
2019-02-18T10:56:28.558Z,9.42
2019-02-18T10:57:28.495Z,9.42
2019-02-18T10:58:28.431Z,9.47
2019-02-18T10:59:28.363Z,9.45
2019-02-18T11:00:28.302Z,9.55
2019-02-18T11:01:28.236Z,9.59
2019-02-18T11:02:28.173Z,9.62
2019-02-18T11:03:28.124Z,9.67
2019-02-18T11:04:28.043Z,9.75
2019-02-18T11:05:27.978Z,9.75
2019-02-18T11:06:27.911Z,9.90
2019-02-18T11:07:27.849Z,9.90
2019-02-18T11:08:27.784Z,9.93
2019-02-18T11:09:27.721Z,9.88
2019-02-18T11:10:27.654Z,9.96
2019-02-18T11:11:27.595Z,9.96
2019-02-18T11:12:27.525Z,10.03
2019-02-18T11:13:27.472Z,10.09
2019-02-18T11:14:27.403Z,10.02
2019-02-18T11:15:27.333Z,10.06
2019-02-18T11:16:27.268Z,10.18
2019-02-18T11:17:27.201Z,10.09
2019-02-18T11:18:27.157Z,10.12
2019-02-18T11:19:27.075Z,10.10
2019-02-18T11:20:27.013Z,10.06
2019-02-18T11:21:26.948Z,10.09
2019-02-18T11:22:26.882Z,10.20
2019-02-18T11:23:26.820Z,10.27
2019-02-18T11:24:26.762Z,10.38
2019-02-18T11:25:26.698Z,10.45
2019-02-18T11:26:26.638Z,10.41
2019-02-18T11:27:26.558Z,10.39
2019-02-18T11:28:26.501Z,10.45
2019-02-18T11:29:26.435Z,10.49
2019-02-18T11:30:26.369Z,10.57
2019-02-18T11:31:26.304Z,10.67
2019-02-18T11:32:26.240Z,10.60
2019-02-18T11:33:26.182Z,10.72
2019-02-18T11:34:26.114Z,10.82
2019-02-18T11:35:26.049Z,10.87
2019-02-18T11:36:25.989Z,11.01
2019-02-18T11:37:25.923Z,11.05
2019-02-18T11:38:25.858Z,11.08
2019-02-18T11:39:25.798Z,11.03
2019-02-18T11:40:25.729Z,10.98
2019-02-18T11:41:27.641Z,11.05
2019-02-18T11:42:25.603Z,11.09
2019-02-18T11:43:25.537Z,11.09
2019-02-18T11:44:25.474Z,11.18
2019-02-18T11:45:25.413Z,11.18
2019-02-18T11:46:25.346Z,11.18
2019-02-18T11:47:25.281Z,11.18
2019-02-18T11:48:25.219Z,11.23
2019-02-18T11:49:25.175Z,11.20
2019-02-18T11:50:25.099Z,11.23
2019-02-18T11:51:25.027Z,11.31
2019-02-18T11:52:24.965Z,11.34
2019-02-18T11:53:24.901Z,11.45
2019-02-18T11:54:24.835Z,11.59
2019-02-18T11:55:24.773Z,11.66
2019-02-18T11:56:24.709Z,11.71
2019-02-18T11:57:24.646Z,11.69
2019-02-18T11:58:24.582Z,11.56
2019-02-18T11:59:24.739Z,11.51
2019-02-18T12:00:24.453Z,11.55
2019-02-18T12:01:24.391Z,11.54
2019-02-18T12:02:24.326Z,11.48
2019-02-18T12:03:24.263Z,11.48
2019-02-18T12:04:24.197Z,11.61
2019-02-18T12:05:24.136Z,11.71
2019-02-18T12:06:24.071Z,11.79
2019-02-18T12:07:24.007Z,11.91
2019-02-18T12:08:23.958Z,11.89
2019-02-18T12:09:23.884Z,11.95
2019-02-18T12:10:23.818Z,11.95
2019-02-18T12:11:23.754Z,11.97
2019-02-18T12:12:23.690Z,11.80
2019-02-18T12:13:23.628Z,11.84
2019-02-18T12:14:23.562Z,11.96
2019-02-18T12:15:23.500Z,11.80
2019-02-18T12:16:23.440Z,11.82
2019-02-18T12:17:23.371Z,11.82
2019-02-18T12:18:23.306Z,11.77
2019-02-18T12:19:23.246Z,11.73
2019-02-18T12:20:23.181Z,11.69
2019-02-18T12:21:23.120Z,11.70
2019-02-18T12:22:23.054Z,11.70
2019-02-18T12:23:22.991Z,11.85
2019-02-18T12:24:22.927Z,11.84
2019-02-18T12:25:22.864Z,11.85
2019-02-18T12:26:22.803Z,11.88
2019-02-18T12:27:22.737Z,11.89
2019-02-18T12:28:22.672Z,11.87
2019-02-18T12:29:26.591Z,11.91
2019-02-18T12:30:22.543Z,11.88
2019-02-18T12:31:22.561Z,12.04
2019-02-18T12:32:22.422Z,12.04
2019-02-18T12:33:22.357Z,12.15
2019-02-18T12:34:22.295Z,12.28
2019-02-18T12:35:31.009Z,12.32
2019-02-18T12:36:22.165Z,12.35
2019-02-18T12:37:22.102Z,12.35
2019-02-18T12:38:22.039Z,12.36
2019-02-18T12:39:22.775Z,12.32
2019-02-18T12:40:21.911Z,12.48
2019-02-18T12:41:21.851Z,12.48
2019-02-18T12:42:21.787Z,12.46
2019-02-18T12:43:21.721Z,12.41
2019-02-18T12:44:21.658Z,12.48
2019-02-18T12:45:21.593Z,12.50
2019-02-18T12:46:21.531Z,12.58
2019-02-18T12:47:21.481Z,12.55
2019-02-18T12:48:21.403Z,12.55
2019-02-18T12:49:21.339Z,12.55
2019-02-18T12:50:21.277Z,12.55
2019-02-18T12:51:21.228Z,12.53
2019-02-18T12:52:21.159Z,12.51
2019-02-18T12:53:21.088Z,12.65
2019-02-18T12:54:21.025Z,12.63
2019-02-18T12:55:21.120Z,12.59
2019-02-18T12:56:20.900Z,12.62
2019-02-18T12:57:20.836Z,12.59
2019-02-18T12:58:20.773Z,12.58
2019-02-18T12:59:20.710Z,12.73
2019-02-18T13:00:20.646Z,12.69
2019-02-18T13:01:20.589Z,12.72
2019-02-18T13:02:20.530Z,12.81
2019-02-18T13:03:20.456Z,12.83
2019-02-18T13:04:20.394Z,12.73
2019-02-18T13:05:20.330Z,12.88
2019-02-18T13:06:20.267Z,12.90
2019-02-18T13:07:20.205Z,12.90
2019-02-18T13:08:20.142Z,12.91
2019-02-18T13:09:20.078Z,12.86
2019-02-18T13:10:20.016Z,12.88
2019-02-18T13:11:19.954Z,12.80
2019-02-18T13:12:19.888Z,12.84